DLH1778 EDDM-LPPT
Flight info
| Callsign | DLH1778 |
|---|---|
| Flight time | 3h 3m |
| Altitude | 24000 |
| Route | MERSI4Q MERSI Y100 UMTEX/N0366F230 Y100 TRA/N0440F370 DCT LUTIX DCT BENOT DCT NEMOS DCT NINTU DCT MEBAK DCT REPSI DCT LERGA DCT MINSO DCT NARAK DCT AGN DCT LATEK DCT PPN DCT MIRPO DCT DGO DCT NEA DCT ARDID DCT INBOM |
| Aircraft | A20N/M-SDE2E3FGHIRWXY/LB1 |
Departure
| Time | 2026-05-01 09:35 |
|---|---|
| Airport | Munich Airport (EDDM) |
Arrival
| Time | 2026-05-01 12:38 |
|---|---|
| Airport | Lisbon Humberto Delgado Airport (LPPT) |
| Time | Latitude | Longitude | Altitude | Speed | Heading |
|---|---|---|---|---|---|
| 2026-05-01 09:10 | 48.35782 | 11.79234 | 1467 ft | 0 kts | 263° |
| 2026-05-01 09:23 | 48.35783 | 11.79250 | 1456 ft | 1 kts | 263° |
| 2026-05-01 09:24 | 48.35785 | 11.79274 | 1465 ft | 1 kts | 263° |
| 2026-05-01 09:24 | 48.35786 | 11.79285 | 1463 ft | 1 kts | 263° |
| 2026-05-01 09:24 | 48.35791 | 11.79350 | 1456 ft | 3 kts | 263° |
| 2026-05-01 09:25 | 48.35823 | 11.79395 | 1460 ft | 0 kts | 174° |
| 2026-05-01 09:26 | 48.35697 | 11.79415 | 1467 ft | 17 kts | 173° |
| 2026-05-01 09:26 | 48.35557 | 11.79441 | 1461 ft | 23 kts | 173° |
| 2026-05-01 09:27 | 48.35227 | 11.79497 | 1463 ft | 24 kts | 172° |
| 2026-05-01 09:27 | 48.35057 | 11.79529 | 1461 ft | 25 kts | 173° |
| 2026-05-01 09:27 | 48.34885 | 11.79553 | 1465 ft | 25 kts | 174° |
| 2026-05-01 09:28 | 48.34794 | 11.79527 | 1459 ft | 11 kts | 237° |
| 2026-05-01 09:28 | 48.34775 | 11.79403 | 1462 ft | 15 kts | 264° |
| 2026-05-01 09:28 | 48.34762 | 11.79218 | 1467 ft | 21 kts | 264° |
| 2026-05-01 09:28 | 48.34744 | 11.78976 | 1466 ft | 26 kts | 263° |
| 2026-05-01 09:29 | 48.34698 | 11.78365 | 1459 ft | 27 kts | 263° |
| 2026-05-01 09:29 | 48.34676 | 11.78080 | 1466 ft | 28 kts | 263° |
| 2026-05-01 09:30 | 48.34632 | 11.77508 | 1466 ft | 28 kts | 263° |
| 2026-05-01 09:30 | 48.34608 | 11.77223 | 1461 ft | 27 kts | 263° |
| 2026-05-01 09:30 | 48.34563 | 11.76656 | 1459 ft | 27 kts | 264° |
| 2026-05-01 09:31 | 48.34544 | 11.76373 | 1466 ft | 27 kts | 264° |
| 2026-05-01 09:31 | 48.34526 | 11.76109 | 1466 ft | 27 kts | 264° |
| 2026-05-01 09:31 | 48.34479 | 11.75537 | 1463 ft | 27 kts | 263° |
| 2026-05-01 09:32 | 48.34455 | 11.75263 | 1463 ft | 24 kts | 236° |
| 2026-05-01 09:32 | 48.34259 | 11.75235 | 1466 ft | 0 kts | 173° |
| 2026-05-01 09:32 | 48.34258 | 11.75235 | 1466 ft | 2 kts | 168° |
| 2026-05-01 09:33 | 48.34179 | 11.75252 | 1464 ft | 17 kts | 173° |
| 2026-05-01 09:33 | 48.34089 | 11.75334 | 1465 ft | 17 kts | 109° |
| 2026-05-01 09:33 | 48.34093 | 11.75436 | 1470 ft | 0 kts | 85° |
| 2026-05-01 09:34 | 48.34098 | 11.75516 | 1472 ft | 33 kts | 83° |
| 2026-05-01 09:34 | 48.34246 | 11.77406 | 1468 ft | 141 kts | 84° |
| 2026-05-01 09:35 | 48.34378 | 11.79067 | 1466 ft | 178 kts | 83° |
| 2026-05-01 09:35 | 48.34668 | 11.83009 | 2187 ft | 202 kts | 85° |
| 2026-05-01 09:35 | 48.34813 | 11.85217 | 2479 ft | 221 kts | 84° |
| 2026-05-01 09:36 | 48.34988 | 11.87617 | 2762 ft | 241 kts | 83° |
| 2026-05-01 09:36 | 48.35185 | 11.90138 | 3374 ft | 244 kts | 83° |
| 2026-05-01 09:36 | 48.35388 | 11.92681 | 3983 ft | 246 kts | 84° |
| 2026-05-01 09:36 | 48.35198 | 11.95228 | 4560 ft | 248 kts | 112° |
| 2026-05-01 09:37 | 48.34200 | 11.97320 | 5079 ft | 249 kts | 141° |
| 2026-05-01 09:37 | 48.31412 | 12.00510 | 6086 ft | 254 kts | 144° |
| 2026-05-01 09:37 | 48.29955 | 12.02022 | 6511 ft | 259 kts | 154° |
| 2026-05-01 09:38 | 48.26204 | 12.02655 | 6617 ft | 297 kts | 184° |
| 2026-05-01 09:38 | 48.24145 | 12.02490 | 6917 ft | 289 kts | 183° |
| 2026-05-01 09:38 | 48.22194 | 12.02350 | 6935 ft | 276 kts | 183° |
| 2026-05-01 09:39 | 48.18330 | 12.02113 | 6936 ft | 277 kts | 183° |
| 2026-05-01 09:39 | 48.16381 | 12.01998 | 7312 ft | 283 kts | 182° |
| 2026-05-01 09:39 | 48.14420 | 12.01884 | 8203 ft | 282 kts | 182° |
| 2026-05-01 09:40 | 48.12449 | 12.01770 | 9051 ft | 285 kts | 182° |
| 2026-05-01 09:40 | 48.08510 | 12.00902 | 10570 ft | 291 kts | 209° |
| 2026-05-01 09:40 | 48.06957 | 11.98973 | 11279 ft | 294 kts | 234° |
| 2026-05-01 09:41 | 48.06086 | 11.96214 | 11964 ft | 297 kts | 255° |
| 2026-05-01 09:41 | 48.05157 | 11.90176 | 13360 ft | 303 kts | 257° |
| 2026-05-01 09:41 | 48.04685 | 11.87088 | 14039 ft | 306 kts | 257° |
| 2026-05-01 09:42 | 48.04184 | 11.83973 | 14699 ft | 310 kts | 256° |
| 2026-05-01 09:42 | 48.03661 | 11.80829 | 15338 ft | 313 kts | 256° |
| 2026-05-01 09:42 | 48.02582 | 11.74468 | 16569 ft | 319 kts | 256° |
| 2026-05-01 09:43 | 48.01476 | 11.67983 | 17760 ft | 325 kts | 257° |
| 2026-05-01 09:43 | 48.01121 | 11.64686 | 18311 ft | 328 kts | 266° |
| 2026-05-01 09:43 | 48.00981 | 11.61277 | 18855 ft | 331 kts | 266° |
| 2026-05-01 09:44 | 48.00672 | 11.54371 | 19919 ft | 336 kts | 266° |
| 2026-05-01 09:44 | 48.00507 | 11.50860 | 20431 ft | 339 kts | 266° |
| 2026-05-01 09:44 | 48.00341 | 11.47334 | 20950 ft | 342 kts | 266° |
| 2026-05-01 09:45 | 48.00171 | 11.43775 | 21424 ft | 345 kts | 266° |
| 2026-05-01 09:45 | 47.99826 | 11.36577 | 22394 ft | 350 kts | 266° |
| 2026-05-01 09:45 | 47.99650 | 11.32939 | 22861 ft | 352 kts | 266° |
| 2026-05-01 09:46 | 47.99474 | 11.29325 | 23286 ft | 355 kts | 266° |
| 2026-05-01 09:46 | 47.99293 | 11.25626 | 23716 ft | 358 kts | 266° |
| 2026-05-01 09:46 | 47.99109 | 11.21883 | 23943 ft | 361 kts | 266° |
| 2026-05-01 09:46 | 47.98922 | 11.18115 | 23999 ft | 371 kts | 266° |
| 2026-05-01 09:47 | 47.98727 | 11.14193 | 24002 ft | 386 kts | 265° |
| 2026-05-01 09:47 | 47.98524 | 11.10162 | 24001 ft | 401 kts | 265° |
| 2026-05-01 09:47 | 47.98305 | 11.05946 | 23999 ft | 414 kts | 264° |
| 2026-05-01 09:47 | 47.97786 | 11.01705 | 24001 ft | 415 kts | 255° |
| 2026-05-01 09:48 | 47.97025 | 10.97558 | 24000 ft | 414 kts | 255° |
| 2026-05-01 09:48 | 47.96276 | 10.93412 | 24000 ft | 414 kts | 255° |
| 2026-05-01 09:48 | 47.95531 | 10.89261 | 24000 ft | 414 kts | 255° |
| 2026-05-01 09:48 | 47.95029 | 10.86461 | 24000 ft | 414 kts | 255° |
| 2026-05-01 09:49 | 47.94294 | 10.82375 | 24000 ft | 414 kts | 255° |
| 2026-05-01 09:49 | 47.93544 | 10.78223 | 24000 ft | 414 kts | 255° |
| 2026-05-01 09:49 | 47.92793 | 10.74075 | 24001 ft | 414 kts | 255° |
| 2026-05-01 09:49 | 47.92284 | 10.71271 | 24000 ft | 414 kts | 255° |
| 2026-05-01 09:50 | 47.91563 | 10.67312 | 24000 ft | 414 kts | 255° |
| 2026-05-01 09:50 | 47.90806 | 10.63169 | 24000 ft | 414 kts | 255° |
| 2026-05-01 09:50 | 47.90048 | 10.59024 | 24000 ft | 414 kts | 255° |
| 2026-05-01 09:50 | 47.89289 | 10.54884 | 24000 ft | 415 kts | 255° |
| 2026-05-01 09:51 | 47.88528 | 10.50742 | 24001 ft | 414 kts | 255° |
| 2026-05-01 09:51 | 47.87765 | 10.46596 | 24000 ft | 415 kts | 255° |
| 2026-05-01 09:51 | 47.87001 | 10.42459 | 24000 ft | 415 kts | 255° |
| 2026-05-01 09:51 | 47.86234 | 10.38306 | 24000 ft | 415 kts | 255° |
| 2026-05-01 09:52 | 47.85510 | 10.34145 | 24000 ft | 414 kts | 258° |
| 2026-05-01 09:52 | 47.85107 | 10.29898 | 23999 ft | 415 kts | 266° |
| 2026-05-01 09:52 | 47.84945 | 10.25609 | 24000 ft | 414 kts | 266° |
| 2026-05-01 09:52 | 47.84780 | 10.21388 | 24000 ft | 414 kts | 266° |
| 2026-05-01 09:53 | 47.84566 | 10.17104 | 23995 ft | 414 kts | 261° |
| 2026-05-01 09:53 | 47.83819 | 10.12978 | 24003 ft | 414 kts | 249° |
| 2026-05-01 09:53 | 47.82711 | 10.09008 | 23999 ft | 414 kts | 246° |
| 2026-05-01 09:53 | 47.81544 | 10.05091 | 24000 ft | 414 kts | 246° |
| 2026-05-01 09:54 | 47.80401 | 10.01162 | 23999 ft | 414 kts | 247° |
| 2026-05-01 09:54 | 47.79292 | 9.97214 | 24000 ft | 414 kts | 248° |
| 2026-05-01 09:54 | 47.78253 | 9.93423 | 24000 ft | 414 kts | 248° |
| 2026-05-01 09:54 | 47.77156 | 9.89373 | 24000 ft | 414 kts | 248° |
| 2026-05-01 09:55 | 47.76087 | 9.85414 | 24000 ft | 414 kts | 248° |
| 2026-05-01 09:55 | 47.75010 | 9.81434 | 24000 ft | 414 kts | 248° |
| 2026-05-01 09:55 | 47.73948 | 9.77522 | 24000 ft | 414 kts | 248° |
| 2026-05-01 09:55 | 47.72872 | 9.73560 | 24000 ft | 414 kts | 248° |
| 2026-05-01 09:56 | 47.71789 | 9.69582 | 24000 ft | 414 kts | 248° |
| 2026-05-01 09:56 | 47.70706 | 9.65612 | 24000 ft | 413 kts | 248° |
| 2026-05-01 09:56 | 47.69624 | 9.61650 | 24000 ft | 413 kts | 248° |
| 2026-05-01 09:56 | 47.68543 | 9.57701 | 24000 ft | 413 kts | 248° |
| 2026-05-01 09:57 | 47.67460 | 9.53755 | 24000 ft | 412 kts | 248° |
| 2026-05-01 09:57 | 47.66378 | 9.49815 | 24001 ft | 413 kts | 248° |
| 2026-05-01 09:57 | 47.65293 | 9.45870 | 24000 ft | 413 kts | 248° |
| 2026-05-01 09:57 | 47.64210 | 9.41937 | 24000 ft | 412 kts | 248° |
| 2026-05-01 09:58 | 47.63136 | 9.38048 | 24000 ft | 412 kts | 248° |
| 2026-05-01 09:58 | 47.62048 | 9.34112 | 24000 ft | 413 kts | 248° |
| 2026-05-01 09:58 | 47.60958 | 9.30175 | 24000 ft | 413 kts | 248° |
| 2026-05-01 09:58 | 47.59868 | 9.26244 | 23999 ft | 413 kts | 248° |
| 2026-05-01 09:59 | 47.58774 | 9.22307 | 24000 ft | 413 kts | 248° |
| 2026-05-01 09:59 | 47.57680 | 9.18373 | 24000 ft | 413 kts | 248° |
| 2026-05-01 09:59 | 47.56582 | 9.14437 | 24000 ft | 413 kts | 248° |
| 2026-05-01 09:59 | 47.55483 | 9.10500 | 24000 ft | 413 kts | 248° |
| 2026-05-01 10:00 | 47.54385 | 9.06575 | 24000 ft | 413 kts | 248° |
| 2026-05-01 10:00 | 47.53285 | 9.02645 | 24000 ft | 413 kts | 248° |
| 2026-05-01 10:00 | 47.52183 | 8.98720 | 23999 ft | 413 kts | 248° |
| 2026-05-01 10:00 | 47.51081 | 8.94799 | 23999 ft | 413 kts | 248° |
| 2026-05-01 10:01 | 47.49977 | 8.90874 | 24000 ft | 413 kts | 247° |
| 2026-05-01 10:01 | 47.48869 | 8.86948 | 24000 ft | 413 kts | 247° |
| 2026-05-01 10:01 | 47.47777 | 8.83078 | 23999 ft | 414 kts | 247° |
| 2026-05-01 10:01 | 47.46665 | 8.79146 | 24000 ft | 414 kts | 247° |
| 2026-05-01 10:02 | 47.45554 | 8.75226 | 23999 ft | 413 kts | 247° |
| 2026-05-01 10:02 | 47.44443 | 8.71309 | 24000 ft | 414 kts | 247° |
| 2026-05-01 10:02 | 47.43329 | 8.67392 | 24000 ft | 413 kts | 247° |
| 2026-05-01 10:02 | 47.42216 | 8.63480 | 24000 ft | 413 kts | 247° |
| 2026-05-01 10:03 | 47.41100 | 8.59568 | 24000 ft | 413 kts | 247° |
| 2026-05-01 10:03 | 47.39983 | 8.55659 | 24000 ft | 413 kts | 247° |
| 2026-05-01 10:03 | 47.38865 | 8.51751 | 24000 ft | 413 kts | 247° |
| 2026-05-01 10:03 | 47.37747 | 8.47850 | 24000 ft | 412 kts | 247° |
| 2026-05-01 10:04 | 47.36639 | 8.43987 | 24001 ft | 414 kts | 247° |
| 2026-05-01 10:04 | 47.35516 | 8.40081 | 24000 ft | 413 kts | 247° |
| 2026-05-01 10:04 | 47.34390 | 8.36169 | 24000 ft | 414 kts | 247° |
| 2026-05-01 10:04 | 47.33265 | 8.32271 | 24000 ft | 412 kts | 247° |
| 2026-05-01 10:05 | 47.32141 | 8.28378 | 24000 ft | 413 kts | 247° |
| 2026-05-01 10:05 | 47.31014 | 8.24482 | 24001 ft | 414 kts | 247° |
| 2026-05-01 10:05 | 47.29885 | 8.20585 | 23999 ft | 413 kts | 247° |
| 2026-05-01 10:05 | 47.28753 | 8.16689 | 24000 ft | 414 kts | 247° |
| 2026-05-01 10:06 | 47.27620 | 8.12790 | 24000 ft | 413 kts | 247° |
| 2026-05-01 10:06 | 47.26483 | 8.08884 | 24000 ft | 414 kts | 247° |
| 2026-05-01 10:06 | 47.25364 | 8.05042 | 24000 ft | 413 kts | 247° |
| 2026-05-01 10:06 | 47.24230 | 8.01160 | 24000 ft | 414 kts | 247° |
| 2026-05-01 10:07 | 47.23090 | 7.97266 | 24000 ft | 414 kts | 247° |
| 2026-05-01 10:07 | 47.21951 | 7.93380 | 24000 ft | 413 kts | 246° |
| 2026-05-01 10:07 | 47.20811 | 7.89496 | 24000 ft | 414 kts | 246° |
| 2026-05-01 10:07 | 47.19669 | 7.85609 | 24000 ft | 413 kts | 246° |
| 2026-05-01 10:08 | 47.17381 | 7.77843 | 24000 ft | 413 kts | 246° |
| 2026-05-01 10:08 | 47.16235 | 7.73965 | 24000 ft | 413 kts | 246° |
| 2026-05-01 10:08 | 47.15088 | 7.70089 | 24000 ft | 413 kts | 246° |
| 2026-05-01 10:09 | 47.13954 | 7.66261 | 24001 ft | 413 kts | 246° |
| 2026-05-01 10:09 | 47.12790 | 7.62341 | 24000 ft | 413 kts | 246° |
| 2026-05-01 10:09 | 47.11640 | 7.58472 | 24000 ft | 413 kts | 246° |
| 2026-05-01 10:09 | 47.10489 | 7.54606 | 24000 ft | 413 kts | 246° |
| 2026-05-01 10:10 | 47.09350 | 7.50785 | 24001 ft | 413 kts | 246° |
| 2026-05-01 10:10 | 47.08193 | 7.46910 | 24000 ft | 413 kts | 246° |
| 2026-05-01 10:10 | 47.05881 | 7.39182 | 24000 ft | 413 kts | 246° |
| 2026-05-01 10:11 | 47.04723 | 7.35323 | 24000 ft | 413 kts | 246° |
| 2026-05-01 10:11 | 47.03565 | 7.31468 | 24000 ft | 413 kts | 246° |
| 2026-05-01 10:11 | 47.02403 | 7.27605 | 24000 ft | 413 kts | 246° |
| 2026-05-01 10:11 | 47.01243 | 7.23757 | 24000 ft | 413 kts | 246° |
| 2026-05-01 10:12 | 47.00094 | 7.19952 | 24000 ft | 413 kts | 246° |
| 2026-05-01 10:12 | 46.98931 | 7.16105 | 24000 ft | 413 kts | 246° |
| 2026-05-01 10:12 | 46.96602 | 7.08419 | 24000 ft | 413 kts | 246° |
| 2026-05-01 10:13 | 46.95434 | 7.04575 | 24000 ft | 413 kts | 246° |
| 2026-05-01 10:13 | 46.94266 | 7.00731 | 24001 ft | 413 kts | 246° |
| 2026-05-01 10:13 | 46.93099 | 6.96893 | 24000 ft | 413 kts | 246° |
| 2026-05-01 10:14 | 46.90431 | 6.89468 | 24000 ft | 413 kts | 236° |
| 2026-05-01 10:14 | 46.88714 | 6.86121 | 24001 ft | 413 kts | 230° |
| 2026-05-01 10:14 | 46.86883 | 6.82865 | 24000 ft | 413 kts | 231° |
| 2026-05-01 10:14 | 46.85098 | 6.79648 | 24000 ft | 413 kts | 231° |
| 2026-05-01 10:15 | 46.83270 | 6.76341 | 24000 ft | 413 kts | 231° |
| 2026-05-01 10:15 | 46.81488 | 6.73120 | 24000 ft | 413 kts | 231° |
| 2026-05-01 10:15 | 46.79997 | 6.70428 | 23996 ft | 413 kts | 231° |
| 2026-05-01 10:15 | 46.78652 | 6.68005 | 24000 ft | 413 kts | 231° |
| 2026-05-01 10:16 | 46.76843 | 6.64749 | 24000 ft | 413 kts | 231° |
| 2026-05-01 10:16 | 46.75076 | 6.61576 | 23997 ft | 413 kts | 231° |
| 2026-05-01 10:16 | 46.71402 | 6.54988 | 24000 ft | 413 kts | 231° |
| 2026-05-01 10:17 | 46.69588 | 6.51741 | 24000 ft | 413 kts | 231° |
| 2026-05-01 10:17 | 46.65946 | 6.45236 | 24000 ft | 414 kts | 231° |
| 2026-05-01 10:17 | 46.64119 | 6.41977 | 24000 ft | 415 kts | 231° |
| 2026-05-01 10:18 | 46.60485 | 6.35506 | 24000 ft | 416 kts | 231° |
| 2026-05-01 10:18 | 46.58644 | 6.32234 | 24000 ft | 419 kts | 231° |
| 2026-05-01 10:18 | 46.56804 | 6.28969 | 24000 ft | 419 kts | 231° |
| 2026-05-01 10:19 | 46.54952 | 6.25684 | 24000 ft | 419 kts | 231° |
| 2026-05-01 10:19 | 46.53101 | 6.22407 | 24000 ft | 418 kts | 231° |
| 2026-05-01 10:19 | 46.51255 | 6.19142 | 24000 ft | 418 kts | 231° |
| 2026-05-01 10:20 | 46.47563 | 6.12622 | 24000 ft | 418 kts | 231° |
| 2026-05-01 10:20 | 46.45734 | 6.09400 | 24000 ft | 418 kts | 231° |
| 2026-05-01 10:20 | 46.43886 | 6.06147 | 24000 ft | 418 kts | 231° |
| 2026-05-01 10:20 | 46.42034 | 6.02891 | 24000 ft | 418 kts | 231° |
| 2026-05-01 10:21 | 46.40181 | 5.99636 | 24000 ft | 419 kts | 231° |
| 2026-05-01 10:21 | 46.36477 | 5.93141 | 24000 ft | 417 kts | 230° |
| 2026-05-01 10:21 | 46.34629 | 5.89907 | 24000 ft | 417 kts | 230° |
| 2026-05-01 10:22 | 46.30926 | 5.83440 | 24000 ft | 417 kts | 230° |
| 2026-05-01 10:22 | 46.27233 | 5.77001 | 23999 ft | 416 kts | 230° |
| 2026-05-01 10:23 | 46.25407 | 5.73824 | 24000 ft | 416 kts | 230° |
| 2026-05-01 10:23 | 46.21705 | 5.67395 | 24000 ft | 416 kts | 230° |
| 2026-05-01 10:23 | 46.19852 | 5.64182 | 24000 ft | 416 kts | 230° |
| 2026-05-01 10:24 | 46.16144 | 5.57763 | 24000 ft | 414 kts | 230° |
| 2026-05-01 10:24 | 46.12711 | 5.51163 | 24000 ft | 414 kts | 236° |
| 2026-05-01 10:25 | 46.09446 | 5.44309 | 24000 ft | 413 kts | 236° |
| 2026-05-01 10:25 | 46.06188 | 5.37510 | 24000 ft | 412 kts | 235° |
| 2026-05-01 10:26 | 46.04557 | 5.34120 | 24000 ft | 412 kts | 235° |
| 2026-05-01 10:26 | 46.02924 | 5.30732 | 24000 ft | 412 kts | 235° |
| 2026-05-01 10:26 | 45.99651 | 5.23952 | 24000 ft | 412 kts | 235° |
| 2026-05-01 10:27 | 45.96377 | 5.17186 | 24001 ft | 412 kts | 235° |
| 2026-05-01 10:27 | 45.93118 | 5.10468 | 24000 ft | 412 kts | 235° |
| 2026-05-01 10:28 | 45.91474 | 5.07086 | 24000 ft | 412 kts | 235° |
| 2026-05-01 10:28 | 45.88187 | 5.00334 | 24000 ft | 412 kts | 235° |
| 2026-05-01 10:28 | 45.86539 | 4.96956 | 24000 ft | 412 kts | 235° |
| 2026-05-01 10:29 | 45.83248 | 4.90221 | 24000 ft | 412 kts | 235° |
| 2026-05-01 10:29 | 45.81600 | 4.86854 | 24000 ft | 412 kts | 235° |
| 2026-05-01 10:30 | 45.78324 | 4.80172 | 24001 ft | 411 kts | 235° |
| 2026-05-01 10:30 | 45.75023 | 4.73456 | 24000 ft | 412 kts | 235° |
| 2026-05-01 10:31 | 45.71715 | 4.66742 | 24000 ft | 412 kts | 235° |
| 2026-05-01 10:31 | 45.68416 | 4.60060 | 24000 ft | 413 kts | 235° |
| 2026-05-01 10:32 | 45.65090 | 4.53339 | 24000 ft | 414 kts | 235° |
| 2026-05-01 10:32 | 45.63428 | 4.49986 | 24000 ft | 414 kts | 234° |
| 2026-05-01 10:32 | 45.60092 | 4.43269 | 24001 ft | 414 kts | 234° |
| 2026-05-01 10:33 | 45.56754 | 4.36563 | 24000 ft | 414 kts | 234° |
| 2026-05-01 10:33 | 45.53423 | 4.29883 | 24000 ft | 413 kts | 234° |
| 2026-05-01 10:34 | 45.51759 | 4.26553 | 24000 ft | 413 kts | 234° |
| 2026-05-01 10:34 | 45.50090 | 4.23222 | 24000 ft | 413 kts | 234° |
| 2026-05-01 10:34 | 45.48416 | 4.19885 | 24000 ft | 413 kts | 234° |
| 2026-05-01 10:35 | 45.45070 | 4.13224 | 23999 ft | 414 kts | 234° |
| 2026-05-01 10:35 | 45.43961 | 4.11019 | 24000 ft | 414 kts | 234° |
| 2026-05-01 10:35 | 45.41731 | 4.06593 | 24000 ft | 415 kts | 234° |
| 2026-05-01 10:35 | 45.40047 | 4.03254 | 24000 ft | 416 kts | 234° |
| 2026-05-01 10:36 | 45.36667 | 3.96565 | 24000 ft | 415 kts | 234° |
| 2026-05-01 10:36 | 45.34980 | 3.93234 | 24000 ft | 415 kts | 234° |
| 2026-05-01 10:36 | 45.33294 | 3.89906 | 24000 ft | 415 kts | 234° |
| 2026-05-01 10:37 | 45.32150 | 3.87650 | 24000 ft | 415 kts | 234° |
| 2026-05-01 10:37 | 45.28789 | 3.81034 | 24000 ft | 416 kts | 234° |
| 2026-05-01 10:37 | 45.27095 | 3.77707 | 23999 ft | 416 kts | 234° |
| 2026-05-01 10:38 | 45.25399 | 3.74379 | 24000 ft | 416 kts | 234° |
| 2026-05-01 10:38 | 45.23725 | 3.71025 | 24000 ft | 416 kts | 235° |
| 2026-05-01 10:38 | 45.22075 | 3.67654 | 24000 ft | 416 kts | 235° |
| 2026-05-01 10:38 | 45.20425 | 3.64275 | 24000 ft | 416 kts | 235° |
| 2026-05-01 10:39 | 45.18774 | 3.60907 | 23999 ft | 415 kts | 235° |
| 2026-05-01 10:39 | 45.17117 | 3.57540 | 24000 ft | 415 kts | 235° |
| 2026-05-01 10:39 | 45.15467 | 3.54198 | 24000 ft | 414 kts | 235° |
| 2026-05-01 10:39 | 45.13816 | 3.50863 | 24000 ft | 414 kts | 235° |
| 2026-05-01 10:40 | 45.12183 | 3.47566 | 24000 ft | 413 kts | 235° |
| 2026-05-01 10:40 | 45.10526 | 3.44227 | 24000 ft | 414 kts | 235° |
| 2026-05-01 10:40 | 45.08866 | 3.40884 | 24000 ft | 415 kts | 235° |
| 2026-05-01 10:40 | 45.07199 | 3.37533 | 24000 ft | 416 kts | 235° |
| 2026-05-01 10:41 | 45.05533 | 3.34183 | 24000 ft | 416 kts | 235° |
| 2026-05-01 10:41 | 45.03862 | 3.30831 | 24000 ft | 417 kts | 235° |
| 2026-05-01 10:41 | 45.00514 | 3.24122 | 24000 ft | 416 kts | 235° |
| 2026-05-01 10:42 | 44.98845 | 3.20784 | 24000 ft | 415 kts | 235° |
| 2026-05-01 10:42 | 44.97200 | 3.17499 | 24000 ft | 415 kts | 235° |
| 2026-05-01 10:42 | 44.95538 | 3.14182 | 24000 ft | 415 kts | 235° |
| 2026-05-01 10:42 | 44.93863 | 3.10843 | 24000 ft | 415 kts | 235° |
| 2026-05-01 10:43 | 44.92191 | 3.07514 | 24000 ft | 415 kts | 234° |
| 2026-05-01 10:43 | 44.90520 | 3.04194 | 24000 ft | 414 kts | 234° |
| 2026-05-01 10:43 | 44.88847 | 3.00872 | 24001 ft | 415 kts | 234° |
| 2026-05-01 10:43 | 44.87175 | 2.97556 | 24001 ft | 415 kts | 234° |
| 2026-05-01 10:44 | 44.85498 | 2.94233 | 24000 ft | 415 kts | 234° |
| 2026-05-01 10:44 | 44.83833 | 2.90898 | 24000 ft | 415 kts | 236° |
| 2026-05-01 10:44 | 44.82270 | 2.87535 | 24000 ft | 416 kts | 237° |
| 2026-05-01 10:44 | 44.80717 | 2.84094 | 24000 ft | 416 kts | 238° |
| 2026-05-01 10:45 | 44.79162 | 2.80653 | 24001 ft | 416 kts | 237° |
| 2026-05-01 10:45 | 44.77598 | 2.77224 | 24001 ft | 415 kts | 237° |
| 2026-05-01 10:45 | 44.76025 | 2.73798 | 24000 ft | 415 kts | 237° |
| 2026-05-01 10:45 | 44.74453 | 2.70392 | 23999 ft | 414 kts | 237° |
| 2026-05-01 10:46 | 44.72880 | 2.66992 | 24000 ft | 414 kts | 237° |
| 2026-05-01 10:46 | 44.71304 | 2.63593 | 24000 ft | 414 kts | 237° |
| 2026-05-01 10:46 | 44.69753 | 2.60251 | 24000 ft | 413 kts | 237° |
| 2026-05-01 10:46 | 44.68183 | 2.56873 | 24001 ft | 413 kts | 237° |
| 2026-05-01 10:47 | 44.66606 | 2.53483 | 24001 ft | 414 kts | 237° |
| 2026-05-01 10:47 | 44.65032 | 2.50104 | 24000 ft | 413 kts | 237° |
| 2026-05-01 10:47 | 44.63459 | 2.46729 | 23999 ft | 412 kts | 237° |
| 2026-05-01 10:47 | 44.61883 | 2.43352 | 24000 ft | 414 kts | 237° |
| 2026-05-01 10:48 | 44.60305 | 2.39975 | 24000 ft | 413 kts | 237° |
| 2026-05-01 10:48 | 44.58727 | 2.36603 | 24001 ft | 413 kts | 237° |
| 2026-05-01 10:48 | 44.57147 | 2.33230 | 24000 ft | 414 kts | 237° |
| 2026-05-01 10:48 | 44.55584 | 2.29896 | 24000 ft | 414 kts | 237° |
| 2026-05-01 10:49 | 44.54005 | 2.26532 | 24000 ft | 412 kts | 237° |
| 2026-05-01 10:49 | 44.52430 | 2.23183 | 24000 ft | 412 kts | 237° |
| 2026-05-01 10:49 | 44.50850 | 2.19826 | 24000 ft | 413 kts | 237° |
| 2026-05-01 10:49 | 44.49264 | 2.16460 | 24000 ft | 413 kts | 237° |
| 2026-05-01 10:50 | 44.47683 | 2.13107 | 24000 ft | 413 kts | 237° |
| 2026-05-01 10:50 | 44.46101 | 2.09758 | 24000 ft | 412 kts | 237° |
| 2026-05-01 10:50 | 44.44512 | 2.06399 | 24000 ft | 412 kts | 237° |
| 2026-05-01 10:50 | 44.42928 | 2.03052 | 24000 ft | 413 kts | 237° |
| 2026-05-01 10:51 | 44.41338 | 1.99697 | 24000 ft | 413 kts | 237° |
| 2026-05-01 10:51 | 44.39753 | 1.96354 | 24000 ft | 413 kts | 236° |
| 2026-05-01 10:51 | 44.38183 | 1.93049 | 24000 ft | 412 kts | 236° |
| 2026-05-01 10:51 | 44.36591 | 1.89700 | 24000 ft | 413 kts | 236° |
| 2026-05-01 10:52 | 44.35002 | 1.86364 | 24001 ft | 413 kts | 236° |
| 2026-05-01 10:52 | 44.33411 | 1.83027 | 24000 ft | 412 kts | 236° |
| 2026-05-01 10:52 | 44.31819 | 1.79691 | 24000 ft | 413 kts | 236° |
| 2026-05-01 10:52 | 44.30228 | 1.76361 | 24000 ft | 412 kts | 236° |
| 2026-05-01 10:53 | 44.28642 | 1.73028 | 24000 ft | 412 kts | 237° |
| 2026-05-01 10:53 | 44.27090 | 1.69662 | 24000 ft | 412 kts | 238° |
| 2026-05-01 10:53 | 44.25555 | 1.66289 | 24000 ft | 412 kts | 238° |
| 2026-05-01 10:53 | 44.24018 | 1.62916 | 24000 ft | 412 kts | 238° |
| 2026-05-01 10:54 | 44.22479 | 1.59554 | 24000 ft | 411 kts | 237° |
| 2026-05-01 10:54 | 44.20935 | 1.56193 | 24000 ft | 411 kts | 237° |
| 2026-05-01 10:54 | 44.19389 | 1.52836 | 24000 ft | 411 kts | 237° |
| 2026-05-01 10:54 | 44.17841 | 1.49483 | 24000 ft | 411 kts | 237° |
| 2026-05-01 10:55 | 44.16292 | 1.46132 | 24000 ft | 411 kts | 237° |
| 2026-05-01 10:55 | 44.14744 | 1.42786 | 24000 ft | 411 kts | 237° |
| 2026-05-01 10:55 | 44.13194 | 1.39440 | 23999 ft | 411 kts | 237° |
| 2026-05-01 10:55 | 44.11669 | 1.36152 | 24001 ft | 411 kts | 237° |
| 2026-05-01 10:56 | 44.10109 | 1.32793 | 24000 ft | 411 kts | 237° |
| 2026-05-01 10:56 | 44.08554 | 1.29450 | 24000 ft | 411 kts | 237° |
| 2026-05-01 10:56 | 44.07001 | 1.26112 | 24001 ft | 411 kts | 237° |
| 2026-05-01 10:56 | 44.05446 | 1.22774 | 24000 ft | 411 kts | 237° |
| 2026-05-01 10:57 | 44.03891 | 1.19439 | 24000 ft | 411 kts | 237° |
| 2026-05-01 10:57 | 44.02331 | 1.16099 | 24000 ft | 411 kts | 237° |
| 2026-05-01 10:57 | 44.00773 | 1.12766 | 24000 ft | 411 kts | 237° |
| 2026-05-01 10:57 | 43.99234 | 1.09480 | 24000 ft | 411 kts | 237° |
| 2026-05-01 10:58 | 43.97672 | 1.06146 | 24000 ft | 411 kts | 237° |
| 2026-05-01 10:58 | 43.96108 | 1.02813 | 24000 ft | 411 kts | 237° |
| 2026-05-01 10:58 | 43.94545 | 0.99484 | 24000 ft | 411 kts | 237° |
| 2026-05-01 10:58 | 43.92982 | 0.96161 | 24000 ft | 411 kts | 237° |
| 2026-05-01 10:59 | 43.91416 | 0.92834 | 24000 ft | 412 kts | 237° |
| 2026-05-01 10:59 | 43.89854 | 0.89521 | 24000 ft | 411 kts | 237° |
| 2026-05-01 10:59 | 43.88160 | 0.86297 | 24000 ft | 412 kts | 230° |
| 2026-05-01 10:59 | 43.86286 | 0.83379 | 23999 ft | 412 kts | 228° |
| 2026-05-01 11:00 | 43.84363 | 0.80421 | 24000 ft | 411 kts | 228° |
| 2026-05-01 11:00 | 43.82451 | 0.77466 | 24000 ft | 412 kts | 228° |
| 2026-05-01 11:00 | 43.80544 | 0.74514 | 24000 ft | 412 kts | 228° |
| 2026-05-01 11:00 | 43.78634 | 0.71563 | 24000 ft | 412 kts | 228° |
| 2026-05-01 11:01 | 43.76719 | 0.68608 | 24000 ft | 411 kts | 228° |
| 2026-05-01 11:01 | 43.74807 | 0.65662 | 24000 ft | 412 kts | 228° |
| 2026-05-01 11:01 | 43.72890 | 0.62712 | 24000 ft | 411 kts | 228° |
| 2026-05-01 11:01 | 43.70975 | 0.59769 | 24000 ft | 411 kts | 228° |
| 2026-05-01 11:02 | 43.69082 | 0.56861 | 24000 ft | 412 kts | 228° |
| 2026-05-01 11:02 | 43.67164 | 0.53920 | 24000 ft | 412 kts | 228° |
| 2026-05-01 11:02 | 43.65245 | 0.50979 | 23999 ft | 412 kts | 228° |
| 2026-05-01 11:02 | 43.63328 | 0.48044 | 24001 ft | 412 kts | 228° |
| 2026-05-01 11:03 | 43.61407 | 0.45107 | 24000 ft | 412 kts | 228° |
| 2026-05-01 11:03 | 43.59485 | 0.42170 | 24000 ft | 412 kts | 228° |
| 2026-05-01 11:03 | 43.57565 | 0.39240 | 24000 ft | 411 kts | 228° |
| 2026-05-01 11:03 | 43.55645 | 0.36313 | 24000 ft | 412 kts | 228° |
| 2026-05-01 11:04 | 43.53721 | 0.33382 | 24000 ft | 412 kts | 228° |
| 2026-05-01 11:04 | 43.51797 | 0.30454 | 24000 ft | 412 kts | 228° |
| 2026-05-01 11:04 | 43.49871 | 0.27526 | 23999 ft | 412 kts | 228° |
| 2026-05-01 11:04 | 43.47944 | 0.24600 | 24000 ft | 412 kts | 228° |
| 2026-05-01 11:05 | 43.46017 | 0.21677 | 24025 ft | 413 kts | 228° |
| 2026-05-01 11:05 | 43.44075 | 0.18736 | 24405 ft | 416 kts | 228° |
| 2026-05-01 11:05 | 43.42125 | 0.15783 | 24838 ft | 417 kts | 228° |
| 2026-05-01 11:05 | 43.40194 | 0.12863 | 24977 ft | 419 kts | 228° |
| 2026-05-01 11:06 | 43.38228 | 0.09894 | 24995 ft | 418 kts | 228° |
| 2026-05-01 11:06 | 43.36267 | 0.06935 | 24996 ft | 418 kts | 228° |
| 2026-05-01 11:06 | 43.34308 | 0.03982 | 25004 ft | 418 kts | 228° |
| 2026-05-01 11:07 | 43.30377 | -0.01936 | 25000 ft | 419 kts | 227° |
| 2026-05-01 11:07 | 43.28408 | -0.04895 | 24999 ft | 419 kts | 227° |
| 2026-05-01 11:07 | 43.26442 | -0.07846 | 25004 ft | 419 kts | 227° |
| 2026-05-01 11:07 | 43.24498 | -0.10761 | 25004 ft | 419 kts | 227° |
| 2026-05-01 11:08 | 43.22527 | -0.13714 | 25004 ft | 419 kts | 227° |
| 2026-05-01 11:08 | 43.20556 | -0.16664 | 25004 ft | 419 kts | 227° |
| 2026-05-01 11:08 | 43.16615 | -0.22552 | 24994 ft | 419 kts | 227° |
| 2026-05-01 11:09 | 43.14646 | -0.25490 | 25004 ft | 419 kts | 227° |
| 2026-05-01 11:09 | 43.12673 | -0.28431 | 24995 ft | 419 kts | 227° |
| 2026-05-01 11:09 | 43.10699 | -0.31371 | 24998 ft | 419 kts | 227° |
| 2026-05-01 11:10 | 43.06762 | -0.37223 | 25005 ft | 423 kts | 227° |
| 2026-05-01 11:10 | 43.04766 | -0.40185 | 24995 ft | 423 kts | 227° |
| 2026-05-01 11:10 | 43.02778 | -0.43132 | 25003 ft | 420 kts | 227° |
| 2026-05-01 11:10 | 43.00791 | -0.46076 | 25000 ft | 425 kts | 227° |
| 2026-05-01 11:11 | 42.98773 | -0.49063 | 25004 ft | 428 kts | 227° |
| 2026-05-01 11:11 | 42.96759 | -0.52041 | 24998 ft | 425 kts | 227° |
| 2026-05-01 11:11 | 42.94749 | -0.55008 | 25000 ft | 425 kts | 227° |
| 2026-05-01 11:11 | 42.92743 | -0.57968 | 24996 ft | 423 kts | 227° |
| 2026-05-01 11:12 | 42.90750 | -0.60906 | 25001 ft | 424 kts | 227° |
| 2026-05-01 11:12 | 42.88897 | -0.64049 | 24998 ft | 425 kts | 237° |
| 2026-05-01 11:12 | 42.87537 | -0.67619 | 25002 ft | 427 kts | 249° |
| 2026-05-01 11:12 | 42.86723 | -0.71449 | 24997 ft | 427 kts | 259° |
| 2026-05-01 11:13 | 42.86208 | -0.75484 | 24998 ft | 427 kts | 260° |
| 2026-05-01 11:13 | 42.85694 | -0.79473 | 25004 ft | 425 kts | 260° |
| 2026-05-01 11:13 | 42.85182 | -0.83385 | 24999 ft | 424 kts | 260° |
| 2026-05-01 11:13 | 42.84660 | -0.87348 | 25004 ft | 426 kts | 260° |
| 2026-05-01 11:14 | 42.84133 | -0.91323 | 24993 ft | 423 kts | 260° |
| 2026-05-01 11:14 | 42.83609 | -0.95267 | 25003 ft | 422 kts | 259° |
| 2026-05-01 11:14 | 42.83085 | -0.99201 | 24993 ft | 423 kts | 259° |
| 2026-05-01 11:14 | 42.82557 | -1.03150 | 24998 ft | 422 kts | 259° |
| 2026-05-01 11:15 | 42.82031 | -1.07073 | 25001 ft | 421 kts | 259° |
| 2026-05-01 11:15 | 42.81503 | -1.10999 | 25004 ft | 421 kts | 259° |
| 2026-05-01 11:15 | 42.80976 | -1.14920 | 25004 ft | 421 kts | 259° |
| 2026-05-01 11:15 | 42.80450 | -1.18809 | 24997 ft | 424 kts | 259° |
| 2026-05-01 11:16 | 42.79916 | -1.22752 | 24995 ft | 422 kts | 259° |
| 2026-05-01 11:16 | 42.79383 | -1.26673 | 24993 ft | 419 kts | 259° |
| 2026-05-01 11:16 | 42.78850 | -1.30587 | 24993 ft | 421 kts | 259° |
| 2026-05-01 11:16 | 42.78316 | -1.34503 | 24999 ft | 421 kts | 259° |
| 2026-05-01 11:17 | 42.77781 | -1.38408 | 25001 ft | 419 kts | 259° |
| 2026-05-01 11:17 | 42.77247 | -1.42306 | 25004 ft | 419 kts | 259° |
| 2026-05-01 11:17 | 42.76710 | -1.46209 | 25001 ft | 420 kts | 259° |
| 2026-05-01 11:17 | 42.76171 | -1.50114 | 24993 ft | 420 kts | 259° |
| 2026-05-01 11:18 | 42.75629 | -1.54033 | 25001 ft | 421 kts | 259° |
| 2026-05-01 11:18 | 42.75094 | -1.57893 | 24992 ft | 420 kts | 259° |
| 2026-05-01 11:18 | 42.74551 | -1.61793 | 25004 ft | 419 kts | 259° |
| 2026-05-01 11:18 | 42.74009 | -1.65686 | 25001 ft | 419 kts | 259° |
| 2026-05-01 11:19 | 42.73450 | -1.69587 | 24999 ft | 421 kts | 257° |
| 2026-05-01 11:19 | 42.72655 | -1.73436 | 25001 ft | 422 kts | 252° |
| 2026-05-01 11:19 | 42.71791 | -1.77227 | 24999 ft | 419 kts | 253° |
| 2026-05-01 11:19 | 42.70939 | -1.81018 | 25004 ft | 419 kts | 253° |
| 2026-05-01 11:20 | 42.70088 | -1.84810 | 25004 ft | 419 kts | 253° |
| 2026-05-01 11:20 | 42.69232 | -1.88608 | 24998 ft | 420 kts | 253° |
| 2026-05-01 11:20 | 42.68385 | -1.92363 | 24994 ft | 420 kts | 253° |
| 2026-05-01 11:20 | 42.67526 | -1.96157 | 25005 ft | 418 kts | 253° |
| 2026-05-01 11:21 | 42.66470 | -1.99841 | 25005 ft | 419 kts | 243° |
| 2026-05-01 11:21 | 42.65132 | -2.03366 | 25006 ft | 420 kts | 242° |
| 2026-05-01 11:21 | 42.63770 | -2.06874 | 25003 ft | 420 kts | 242° |
| 2026-05-01 11:21 | 42.62407 | -2.10396 | 24999 ft | 420 kts | 242° |
| 2026-05-01 11:22 | 42.61056 | -2.13913 | 24999 ft | 420 kts | 243° |
| 2026-05-01 11:22 | 42.59712 | -2.17432 | 25003 ft | 420 kts | 243° |
| 2026-05-01 11:22 | 42.58370 | -2.20956 | 24999 ft | 419 kts | 243° |
| 2026-05-01 11:22 | 42.57029 | -2.24476 | 25003 ft | 420 kts | 243° |
| 2026-05-01 11:23 | 42.55687 | -2.27995 | 25004 ft | 420 kts | 243° |
| 2026-05-01 11:23 | 42.54345 | -2.31511 | 24999 ft | 420 kts | 243° |
| 2026-05-01 11:23 | 42.53020 | -2.34977 | 25000 ft | 420 kts | 243° |
| 2026-05-01 11:23 | 42.51672 | -2.38496 | 25006 ft | 419 kts | 243° |
| 2026-05-01 11:24 | 42.50325 | -2.42006 | 24999 ft | 419 kts | 243° |
| 2026-05-01 11:24 | 42.48978 | -2.45511 | 25002 ft | 419 kts | 243° |
| 2026-05-01 11:24 | 42.46280 | -2.52515 | 24996 ft | 420 kts | 242° |
| 2026-05-01 11:25 | 42.44925 | -2.56024 | 24997 ft | 419 kts | 242° |
| 2026-05-01 11:25 | 42.42677 | -2.61840 | 24999 ft | 420 kts | 242° |
| 2026-05-01 11:25 | 42.41313 | -2.65361 | 24996 ft | 421 kts | 242° |
| 2026-05-01 11:26 | 42.39514 | -2.70001 | 24997 ft | 420 kts | 242° |
| 2026-05-01 11:26 | 42.37237 | -2.75864 | 24996 ft | 420 kts | 242° |
| 2026-05-01 11:26 | 42.35877 | -2.79359 | 25001 ft | 420 kts | 242° |
| 2026-05-01 11:27 | 42.34515 | -2.82856 | 25003 ft | 421 kts | 242° |
| 2026-05-01 11:27 | 42.33165 | -2.86316 | 24996 ft | 421 kts | 242° |
| 2026-05-01 11:27 | 42.31797 | -2.89820 | 24998 ft | 422 kts | 242° |
| 2026-05-01 11:27 | 42.30424 | -2.93332 | 24998 ft | 424 kts | 242° |
| 2026-05-01 11:28 | 42.29039 | -2.96872 | 25001 ft | 426 kts | 242° |
| 2026-05-01 11:28 | 42.27654 | -3.00403 | 24996 ft | 423 kts | 242° |
| 2026-05-01 11:28 | 42.26274 | -3.03920 | 25004 ft | 422 kts | 242° |
| 2026-05-01 11:29 | 42.23517 | -3.10934 | 25003 ft | 429 kts | 242° |
| 2026-05-01 11:29 | 42.22118 | -3.14486 | 24994 ft | 426 kts | 242° |
| 2026-05-01 11:29 | 42.19343 | -3.21521 | 24999 ft | 426 kts | 242° |
| 2026-05-01 11:30 | 42.17950 | -3.25043 | 25005 ft | 425 kts | 242° |
| 2026-05-01 11:30 | 42.16557 | -3.28564 | 25000 ft | 425 kts | 242° |
| 2026-05-01 11:30 | 42.15165 | -3.32077 | 24995 ft | 424 kts | 242° |
| 2026-05-01 11:30 | 42.13792 | -3.35537 | 25004 ft | 422 kts | 242° |
| 2026-05-01 11:31 | 42.12407 | -3.39026 | 24999 ft | 422 kts | 242° |
| 2026-05-01 11:31 | 42.11020 | -3.42513 | 25001 ft | 422 kts | 242° |
| 2026-05-01 11:31 | 42.09633 | -3.45996 | 25001 ft | 422 kts | 242° |
| 2026-05-01 11:31 | 42.08240 | -3.49489 | 25001 ft | 423 kts | 242° |
| 2026-05-01 11:32 | 42.06842 | -3.52992 | 25000 ft | 423 kts | 242° |
| 2026-05-01 11:32 | 42.05451 | -3.56475 | 25003 ft | 422 kts | 242° |
| 2026-05-01 11:32 | 42.04062 | -3.59946 | 24998 ft | 422 kts | 242° |
| 2026-05-01 11:32 | 42.02689 | -3.63375 | 25004 ft | 421 kts | 242° |
| 2026-05-01 11:33 | 42.01293 | -3.66858 | 24999 ft | 422 kts | 242° |
| 2026-05-01 11:33 | 41.99895 | -3.70339 | 24997 ft | 422 kts | 242° |
| 2026-05-01 11:33 | 41.98501 | -3.73808 | 25000 ft | 422 kts | 242° |
| 2026-05-01 11:33 | 41.97104 | -3.77278 | 25000 ft | 422 kts | 242° |
| 2026-05-01 11:34 | 41.95705 | -3.80752 | 24998 ft | 422 kts | 242° |
| 2026-05-01 11:34 | 41.94305 | -3.84222 | 24997 ft | 422 kts | 242° |
| 2026-05-01 11:34 | 41.92926 | -3.87637 | 25000 ft | 422 kts | 242° |
| 2026-05-01 11:34 | 41.91526 | -3.91099 | 25001 ft | 422 kts | 242° |
| 2026-05-01 11:35 | 41.90123 | -3.94563 | 25000 ft | 422 kts | 242° |
| 2026-05-01 11:35 | 41.88721 | -3.98025 | 25006 ft | 422 kts | 242° |
| 2026-05-01 11:35 | 41.87316 | -4.01487 | 24998 ft | 422 kts | 242° |
| 2026-05-01 11:35 | 41.85911 | -4.04943 | 24998 ft | 422 kts | 242° |
| 2026-05-01 11:36 | 41.84501 | -4.08411 | 25001 ft | 422 kts | 241° |
| 2026-05-01 11:36 | 41.83094 | -4.11864 | 25006 ft | 422 kts | 241° |
| 2026-05-01 11:36 | 41.81688 | -4.15313 | 25000 ft | 422 kts | 241° |
| 2026-05-01 11:36 | 41.80279 | -4.18767 | 24996 ft | 422 kts | 241° |
| 2026-05-01 11:37 | 41.78886 | -4.22176 | 25006 ft | 422 kts | 241° |
| 2026-05-01 11:37 | 41.77474 | -4.25627 | 25006 ft | 422 kts | 241° |
| 2026-05-01 11:37 | 41.76063 | -4.29072 | 25002 ft | 421 kts | 241° |
| 2026-05-01 11:37 | 41.74653 | -4.32510 | 24999 ft | 421 kts | 241° |
| 2026-05-01 11:38 | 41.73242 | -4.35946 | 24998 ft | 421 kts | 241° |
| 2026-05-01 11:38 | 41.71830 | -4.39382 | 25000 ft | 421 kts | 241° |
| 2026-05-01 11:38 | 41.70415 | -4.42821 | 24995 ft | 422 kts | 241° |
| 2026-05-01 11:38 | 41.68999 | -4.46258 | 24999 ft | 422 kts | 241° |
| 2026-05-01 11:39 | 41.67579 | -4.49700 | 25004 ft | 422 kts | 241° |
| 2026-05-01 11:39 | 41.66179 | -4.53090 | 25000 ft | 421 kts | 241° |
| 2026-05-01 11:39 | 41.64763 | -4.56516 | 25002 ft | 422 kts | 241° |
| 2026-05-01 11:39 | 41.63344 | -4.59944 | 25002 ft | 421 kts | 241° |
| 2026-05-01 11:40 | 41.61923 | -4.63373 | 25000 ft | 421 kts | 241° |
| 2026-05-01 11:40 | 41.60503 | -4.66796 | 24998 ft | 421 kts | 241° |
| 2026-05-01 11:40 | 41.59082 | -4.70219 | 25000 ft | 421 kts | 241° |
| 2026-05-01 11:40 | 41.57662 | -4.73634 | 25000 ft | 421 kts | 241° |
| 2026-05-01 11:41 | 41.56240 | -4.77049 | 25006 ft | 421 kts | 241° |
| 2026-05-01 11:41 | 41.54817 | -4.80462 | 24998 ft | 421 kts | 241° |
| 2026-05-01 11:41 | 41.53393 | -4.83875 | 25000 ft | 421 kts | 241° |
| 2026-05-01 11:41 | 41.51968 | -4.87287 | 25004 ft | 421 kts | 241° |
| 2026-05-01 11:42 | 41.50538 | -4.90706 | 24998 ft | 420 kts | 241° |
| 2026-05-01 11:42 | 41.49110 | -4.94117 | 24999 ft | 421 kts | 241° |
| 2026-05-01 11:42 | 41.47685 | -4.97518 | 24997 ft | 420 kts | 241° |
| 2026-05-01 11:42 | 41.46272 | -5.00884 | 25001 ft | 421 kts | 241° |
| 2026-05-01 11:43 | 41.44841 | -5.04291 | 25005 ft | 421 kts | 241° |
| 2026-05-01 11:43 | 41.43410 | -5.07693 | 24999 ft | 421 kts | 241° |
| 2026-05-01 11:43 | 41.41973 | -5.11102 | 24997 ft | 421 kts | 241° |
| 2026-05-01 11:44 | 41.39107 | -5.17900 | 25001 ft | 421 kts | 240° |
| 2026-05-01 11:44 | 41.37668 | -5.21304 | 25001 ft | 421 kts | 240° |
| 2026-05-01 11:44 | 41.36229 | -5.24707 | 25000 ft | 421 kts | 240° |
| 2026-05-01 11:44 | 41.34789 | -5.28107 | 24997 ft | 421 kts | 240° |
| 2026-05-01 11:45 | 41.33368 | -5.31457 | 25001 ft | 421 kts | 240° |
| 2026-05-01 11:45 | 41.31926 | -5.34855 | 24999 ft | 421 kts | 240° |
| 2026-05-01 11:45 | 41.30482 | -5.38253 | 24999 ft | 421 kts | 240° |
| 2026-05-01 11:45 | 41.29040 | -5.41643 | 25001 ft | 421 kts | 240° |
| 2026-05-01 11:46 | 41.27596 | -5.45032 | 24995 ft | 421 kts | 240° |
| 2026-05-01 11:46 | 41.26150 | -5.48424 | 25000 ft | 421 kts | 240° |
| 2026-05-01 11:46 | 41.24705 | -5.51808 | 25002 ft | 422 kts | 240° |
| 2026-05-01 11:46 | 41.23257 | -5.55197 | 24996 ft | 422 kts | 240° |
| 2026-05-01 11:47 | 41.21809 | -5.58582 | 25000 ft | 422 kts | 240° |
| 2026-05-01 11:47 | 41.20378 | -5.61924 | 24999 ft | 422 kts | 240° |
| 2026-05-01 11:47 | 41.18928 | -5.65305 | 24995 ft | 421 kts | 240° |
| 2026-05-01 11:47 | 41.17477 | -5.68686 | 24997 ft | 421 kts | 240° |
| 2026-05-01 11:48 | 41.16023 | -5.72070 | 24996 ft | 422 kts | 240° |
| 2026-05-01 11:48 | 41.14568 | -5.75452 | 25002 ft | 421 kts | 240° |
| 2026-05-01 11:48 | 41.13112 | -5.78832 | 24996 ft | 421 kts | 240° |
| 2026-05-01 11:48 | 41.11658 | -5.82204 | 25000 ft | 421 kts | 240° |
| 2026-05-01 11:49 | 41.10202 | -5.85577 | 25001 ft | 421 kts | 240° |
| 2026-05-01 11:49 | 41.08742 | -5.88957 | 25003 ft | 421 kts | 240° |
| 2026-05-01 11:49 | 41.07304 | -5.92280 | 25003 ft | 421 kts | 240° |
| 2026-05-01 11:49 | 41.05843 | -5.95652 | 25002 ft | 421 kts | 240° |
| 2026-05-01 11:50 | 41.04385 | -5.99014 | 25002 ft | 421 kts | 240° |
| 2026-05-01 11:50 | 41.02920 | -6.02389 | 24996 ft | 421 kts | 240° |
| 2026-05-01 11:50 | 41.01457 | -6.05756 | 25004 ft | 422 kts | 240° |
| 2026-05-01 11:50 | 40.99993 | -6.09120 | 25000 ft | 421 kts | 240° |
| 2026-05-01 11:51 | 40.98527 | -6.12486 | 24999 ft | 421 kts | 240° |
| 2026-05-01 11:51 | 40.97064 | -6.15841 | 25001 ft | 421 kts | 240° |
| 2026-05-01 11:51 | 40.95599 | -6.19198 | 24999 ft | 421 kts | 240° |
| 2026-05-01 11:51 | 40.94134 | -6.22550 | 25005 ft | 421 kts | 240° |
| 2026-05-01 11:52 | 40.92667 | -6.25903 | 25003 ft | 421 kts | 240° |
| 2026-05-01 11:52 | 40.91197 | -6.29259 | 25000 ft | 421 kts | 240° |
| 2026-05-01 11:52 | 40.89729 | -6.32608 | 24995 ft | 421 kts | 240° |
| 2026-05-01 11:52 | 40.88278 | -6.35914 | 25003 ft | 421 kts | 240° |
| 2026-05-01 11:53 | 40.86808 | -6.39260 | 25002 ft | 421 kts | 240° |
| 2026-05-01 11:53 | 40.85337 | -6.42604 | 25001 ft | 421 kts | 240° |
| 2026-05-01 11:53 | 40.83864 | -6.45950 | 24998 ft | 421 kts | 240° |
| 2026-05-01 11:53 | 40.82391 | -6.49292 | 25004 ft | 421 kts | 240° |
| 2026-05-01 11:54 | 40.80915 | -6.52636 | 24999 ft | 421 kts | 240° |
| 2026-05-01 11:54 | 40.79433 | -6.55988 | 25002 ft | 421 kts | 240° |
| 2026-05-01 11:54 | 40.77954 | -6.59330 | 25000 ft | 421 kts | 240° |
| 2026-05-01 11:54 | 40.76478 | -6.62664 | 24999 ft | 421 kts | 240° |
| 2026-05-01 11:55 | 40.75001 | -6.65996 | 24995 ft | 421 kts | 240° |
| 2026-05-01 11:55 | 40.73540 | -6.69287 | 24999 ft | 420 kts | 240° |
| 2026-05-01 11:55 | 40.72062 | -6.72616 | 24995 ft | 421 kts | 240° |
| 2026-05-01 11:55 | 40.70582 | -6.75942 | 24995 ft | 421 kts | 239° |
| 2026-05-01 11:56 | 40.69098 | -6.79276 | 25002 ft | 420 kts | 239° |
| 2026-05-01 11:56 | 40.67615 | -6.82604 | 24995 ft | 421 kts | 239° |
| 2026-05-01 11:56 | 40.66131 | -6.85930 | 25006 ft | 421 kts | 239° |
| 2026-05-01 11:56 | 40.64643 | -6.89262 | 24998 ft | 421 kts | 239° |
| 2026-05-01 11:57 | 40.63159 | -6.92580 | 24998 ft | 420 kts | 239° |
| 2026-05-01 11:57 | 40.61674 | -6.95897 | 25006 ft | 421 kts | 239° |
| 2026-05-01 11:57 | 40.60203 | -6.99179 | 24998 ft | 421 kts | 239° |
| 2026-05-01 11:57 | 40.58712 | -7.02501 | 24998 ft | 421 kts | 239° |
| 2026-05-01 11:58 | 40.57224 | -7.05816 | 24999 ft | 421 kts | 239° |
| 2026-05-01 11:58 | 40.55734 | -7.09129 | 24998 ft | 421 kts | 239° |
| 2026-05-01 11:58 | 40.52741 | -7.15776 | 25003 ft | 421 kts | 239° |
| 2026-05-01 11:59 | 40.51248 | -7.19083 | 24999 ft | 422 kts | 239° |
| 2026-05-01 11:59 | 40.49749 | -7.22403 | 25000 ft | 421 kts | 239° |
| 2026-05-01 11:59 | 40.48253 | -7.25712 | 24998 ft | 421 kts | 239° |
| 2026-05-01 12:00 | 40.45260 | -7.32324 | 25003 ft | 420 kts | 239° |
| 2026-05-01 12:00 | 40.43779 | -7.35590 | 25000 ft | 422 kts | 239° |
| 2026-05-01 12:00 | 40.40780 | -7.42193 | 24996 ft | 419 kts | 239° |
| 2026-05-01 12:01 | 40.39283 | -7.45483 | 24994 ft | 420 kts | 239° |
| 2026-05-01 12:01 | 40.37783 | -7.48777 | 25000 ft | 421 kts | 239° |
| 2026-05-01 12:01 | 40.36275 | -7.52085 | 25004 ft | 424 kts | 239° |
| 2026-05-01 12:01 | 40.34757 | -7.55411 | 25001 ft | 426 kts | 239° |
| 2026-05-01 12:02 | 40.33240 | -7.58732 | 25001 ft | 424 kts | 239° |
| 2026-05-01 12:02 | 40.31739 | -7.62015 | 24998 ft | 428 kts | 239° |
| 2026-05-01 12:02 | 40.30206 | -7.65361 | 24996 ft | 425 kts | 239° |
| 2026-05-01 12:02 | 40.28714 | -7.68614 | 25000 ft | 419 kts | 239° |
| 2026-05-01 12:03 | 40.27213 | -7.71885 | 25003 ft | 420 kts | 239° |
| 2026-05-01 12:03 | 40.25701 | -7.75177 | 24999 ft | 420 kts | 239° |
| 2026-05-01 12:03 | 40.24189 | -7.78465 | 24994 ft | 422 kts | 239° |
| 2026-05-01 12:03 | 40.22673 | -7.81758 | 24998 ft | 422 kts | 239° |
| 2026-05-01 12:04 | 40.21156 | -7.85051 | 25002 ft | 423 kts | 239° |
| 2026-05-01 12:04 | 40.19636 | -7.88346 | 25001 ft | 422 kts | 239° |
| 2026-05-01 12:04 | 40.18139 | -7.91589 | 25005 ft | 421 kts | 239° |
| 2026-05-01 12:04 | 40.16626 | -7.94861 | 24997 ft | 420 kts | 239° |
| 2026-05-01 12:05 | 40.15109 | -7.98136 | 25001 ft | 420 kts | 238° |
| 2026-05-01 12:05 | 40.11065 | -8.03568 | 24999 ft | 422 kts | 217° |
| 2026-05-01 12:05 | 40.08703 | -8.05859 | 25004 ft | 423 kts | 217° |
| 2026-05-01 12:06 | 40.06343 | -8.08144 | 25000 ft | 421 kts | 217° |
| 2026-05-01 12:06 | 40.04023 | -8.10391 | 24913 ft | 420 kts | 217° |
| 2026-05-01 12:06 | 40.01675 | -8.12666 | 24665 ft | 419 kts | 217° |
| 2026-05-01 12:06 | 39.99344 | -8.14924 | 24415 ft | 416 kts | 217° |
| 2026-05-01 12:07 | 39.97022 | -8.17172 | 24165 ft | 415 kts | 217° |
| 2026-05-01 12:07 | 39.94707 | -8.19411 | 23915 ft | 413 kts | 217° |
| 2026-05-01 12:07 | 39.92408 | -8.21632 | 23665 ft | 411 kts | 217° |
| 2026-05-01 12:07 | 39.90112 | -8.23850 | 23415 ft | 409 kts | 217° |
| 2026-05-01 12:08 | 39.87830 | -8.26052 | 23164 ft | 407 kts | 217° |
| 2026-05-01 12:08 | 39.85553 | -8.28245 | 22901 ft | 406 kts | 217° |
| 2026-05-01 12:08 | 39.83289 | -8.30426 | 22674 ft | 404 kts | 217° |
| 2026-05-01 12:08 | 39.81031 | -8.32599 | 22412 ft | 403 kts | 217° |
| 2026-05-01 12:09 | 39.78781 | -8.34763 | 22162 ft | 401 kts | 217° |
| 2026-05-01 12:09 | 39.76570 | -8.36887 | 21915 ft | 399 kts | 217° |
| 2026-05-01 12:09 | 39.74342 | -8.39026 | 21664 ft | 397 kts | 217° |
| 2026-05-01 12:09 | 39.72120 | -8.41156 | 21414 ft | 396 kts | 217° |
| 2026-05-01 12:10 | 39.69902 | -8.43281 | 21162 ft | 394 kts | 217° |
| 2026-05-01 12:10 | 39.65499 | -8.47495 | 20661 ft | 391 kts | 217° |
| 2026-05-01 12:10 | 39.63308 | -8.49590 | 20411 ft | 390 kts | 217° |
| 2026-05-01 12:11 | 39.58956 | -8.53747 | 19910 ft | 387 kts | 217° |
| 2026-05-01 12:11 | 39.56817 | -8.55786 | 19663 ft | 385 kts | 216° |
| 2026-05-01 12:11 | 39.54662 | -8.57840 | 19413 ft | 383 kts | 216° |
| 2026-05-01 12:12 | 39.52517 | -8.59882 | 19163 ft | 382 kts | 216° |
| 2026-05-01 12:12 | 39.50379 | -8.61917 | 18911 ft | 381 kts | 216° |
| 2026-05-01 12:12 | 39.48240 | -8.63950 | 18662 ft | 379 kts | 216° |
| 2026-05-01 12:12 | 39.46110 | -8.65973 | 18409 ft | 378 kts | 216° |
| 2026-05-01 12:13 | 39.43997 | -8.67979 | 18158 ft | 376 kts | 216° |
| 2026-05-01 12:13 | 39.41890 | -8.69978 | 17875 ft | 375 kts | 216° |
| 2026-05-01 12:13 | 39.39786 | -8.71972 | 17547 ft | 374 kts | 216° |
| 2026-05-01 12:13 | 39.37697 | -8.73951 | 17214 ft | 371 kts | 216° |
| 2026-05-01 12:14 | 39.35617 | -8.75920 | 16897 ft | 369 kts | 216° |
| 2026-05-01 12:14 | 39.33585 | -8.77842 | 16574 ft | 363 kts | 216° |
| 2026-05-01 12:14 | 39.31564 | -8.79751 | 16248 ft | 356 kts | 216° |
| 2026-05-01 12:14 | 39.29585 | -8.81620 | 15912 ft | 349 kts | 216° |
| 2026-05-01 12:15 | 39.27642 | -8.83453 | 15596 ft | 342 kts | 216° |
| 2026-05-01 12:15 | 39.26188 | -8.84823 | 15344 ft | 337 kts | 216° |
| 2026-05-01 12:15 | 39.24861 | -8.86074 | 15110 ft | 333 kts | 216° |
| 2026-05-01 12:15 | 39.23565 | -8.87295 | 14868 ft | 330 kts | 216° |
| 2026-05-01 12:16 | 39.21723 | -8.89032 | 14549 ft | 324 kts | 216° |
| 2026-05-01 12:16 | 39.19918 | -8.90731 | 14225 ft | 319 kts | 216° |
| 2026-05-01 12:16 | 39.18101 | -8.92473 | 13906 ft | 341 kts | 221° |
| 2026-05-01 12:16 | 39.17012 | -8.93983 | 13690 ft | 353 kts | 235° |
| 2026-05-01 12:17 | 39.15960 | -8.96834 | 13361 ft | 352 kts | 256° |
| 2026-05-01 12:17 | 39.15786 | -8.99927 | 13090 ft | 346 kts | 278° |
| 2026-05-01 12:17 | 39.16519 | -9.02844 | 13011 ft | 346 kts | 298° |
| 2026-05-01 12:17 | 39.17780 | -9.05540 | 13001 ft | 351 kts | 302° |
| 2026-05-01 12:18 | 39.19059 | -9.08222 | 12966 ft | 350 kts | 300° |
| 2026-05-01 12:18 | 39.20212 | -9.10932 | 12731 ft | 348 kts | 297° |
| 2026-05-01 12:18 | 39.21272 | -9.13721 | 12399 ft | 344 kts | 295° |
| 2026-05-01 12:18 | 39.22265 | -9.16526 | 12082 ft | 343 kts | 294° |
| 2026-05-01 12:19 | 39.23230 | -9.19339 | 11755 ft | 341 kts | 294° |
| 2026-05-01 12:19 | 39.24180 | -9.22140 | 11430 ft | 340 kts | 293° |
| 2026-05-01 12:19 | 39.25122 | -9.24924 | 11080 ft | 336 kts | 293° |
| 2026-05-01 12:19 | 39.26050 | -9.27669 | 10737 ft | 330 kts | 293° |
| 2026-05-01 12:20 | 39.26961 | -9.30363 | 10384 ft | 325 kts | 293° |
| 2026-05-01 12:20 | 39.27858 | -9.33014 | 10032 ft | 319 kts | 292° |
| 2026-05-01 12:20 | 39.28362 | -9.35753 | 9644 ft | 310 kts | 271° |
| 2026-05-01 12:20 | 39.28021 | -9.38425 | 9269 ft | 297 kts | 248° |
| 2026-05-01 12:21 | 39.26961 | -9.40642 | 8889 ft | 286 kts | 226° |
| 2026-05-01 12:21 | 39.25423 | -9.42137 | 8519 ft | 277 kts | 206° |
| 2026-05-01 12:21 | 39.23615 | -9.42827 | 8143 ft | 268 kts | 185° |
| 2026-05-01 12:21 | 39.22785 | -9.42862 | 7974 ft | 265 kts | 176° |
| 2026-05-01 12:22 | 39.21014 | -9.42363 | 7595 ft | 257 kts | 157° |
| 2026-05-01 12:22 | 39.19514 | -9.41178 | 7224 ft | 250 kts | 138° |
| 2026-05-01 12:22 | 39.18416 | -9.39482 | 6856 ft | 246 kts | 120° |
| 2026-05-01 12:22 | 39.17734 | -9.37468 | 6524 ft | 244 kts | 111° |
| 2026-05-01 12:23 | 39.17121 | -9.35451 | 6384 ft | 243 kts | 111° |
| 2026-05-01 12:23 | 39.16485 | -9.33424 | 6248 ft | 243 kts | 112° |
| 2026-05-01 12:23 | 39.15846 | -9.31404 | 6122 ft | 243 kts | 112° |
| 2026-05-01 12:23 | 39.15225 | -9.29443 | 5987 ft | 243 kts | 112° |
| 2026-05-01 12:24 | 39.14656 | -9.27363 | 5727 ft | 242 kts | 97° |
| 2026-05-01 12:24 | 39.14822 | -9.25243 | 5484 ft | 241 kts | 66° |
| 2026-05-01 12:24 | 39.15637 | -9.23341 | 5234 ft | 248 kts | 67° |
| 2026-05-01 12:24 | 39.16056 | -9.21175 | 5169 ft | 250 kts | 81° |
| 2026-05-01 12:25 | 39.16277 | -9.18943 | 5141 ft | 250 kts | 83° |
| 2026-05-01 12:25 | 39.16704 | -9.14486 | 5093 ft | 249 kts | 82° |
| 2026-05-01 12:25 | 39.16951 | -9.12324 | 5020 ft | 238 kts | 81° |
| 2026-05-01 12:26 | 39.17198 | -9.10267 | 4918 ft | 225 kts | 81° |
| 2026-05-01 12:26 | 39.17637 | -9.06600 | 4737 ft | 190 kts | 81° |
| 2026-05-01 12:26 | 39.17831 | -9.04983 | 4591 ft | 179 kts | 81° |
| 2026-05-01 12:27 | 39.18017 | -9.03453 | 4431 ft | 168 kts | 85° |
| 2026-05-01 12:27 | 39.16788 | -9.01299 | 3849 ft | 161 kts | 174° |
| 2026-05-01 12:28 | 39.14550 | -9.01624 | 3849 ft | 163 kts | 187° |
| 2026-05-01 12:28 | 39.13419 | -9.01762 | 3846 ft | 163 kts | 185° |
| 2026-05-01 12:28 | 39.11179 | -9.01990 | 3855 ft | 159 kts | 186° |
| 2026-05-01 12:29 | 39.10087 | -9.02114 | 3846 ft | 158 kts | 186° |
| 2026-05-01 12:29 | 39.08990 | -9.02240 | 3840 ft | 158 kts | 186° |
| 2026-05-01 12:29 | 39.06803 | -9.02493 | 3837 ft | 156 kts | 186° |
| 2026-05-01 12:30 | 39.04621 | -9.02746 | 3844 ft | 158 kts | 186° |
| 2026-05-01 12:30 | 39.03517 | -9.02869 | 3838 ft | 158 kts | 186° |
| 2026-05-01 12:30 | 39.02420 | -9.02992 | 3838 ft | 157 kts | 186° |
| 2026-05-01 12:31 | 39.01350 | -9.03114 | 3844 ft | 158 kts | 186° |
| 2026-05-01 12:31 | 39.00253 | -9.03251 | 3842 ft | 157 kts | 186° |
| 2026-05-01 12:31 | 38.99173 | -9.03375 | 3853 ft | 158 kts | 186° |
| 2026-05-01 12:31 | 38.98091 | -9.03499 | 3846 ft | 157 kts | 186° |
| 2026-05-01 12:32 | 38.96994 | -9.03683 | 3836 ft | 157 kts | 193° |
| 2026-05-01 12:32 | 38.94924 | -9.04570 | 3652 ft | 156 kts | 203° |
| 2026-05-01 12:32 | 38.93941 | -9.05098 | 3449 ft | 148 kts | 203° |
| 2026-05-01 12:33 | 38.92998 | -9.05605 | 3260 ft | 147 kts | 203° |
| 2026-05-01 12:33 | 38.92054 | -9.06113 | 3061 ft | 146 kts | 204° |
| 2026-05-01 12:33 | 38.91122 | -9.06616 | 2874 ft | 146 kts | 203° |
| 2026-05-01 12:33 | 38.91048 | -9.06656 | 2854 ft | 146 kts | 203° |
| 2026-05-01 12:34 | 38.90370 | -9.07021 | 2726 ft | 145 kts | 204° |
| 2026-05-01 12:34 | 38.89535 | -9.07472 | 2547 ft | 146 kts | 203° |
| 2026-05-01 12:34 | 38.89264 | -9.07617 | 2488 ft | 146 kts | 203° |
| 2026-05-01 12:34 | 38.88413 | -9.08074 | 2311 ft | 144 kts | 204° |
| 2026-05-01 12:35 | 38.87518 | -9.08557 | 2127 ft | 144 kts | 203° |
| 2026-05-01 12:35 | 38.86685 | -9.09004 | 1956 ft | 144 kts | 203° |
| 2026-05-01 12:35 | 38.85775 | -9.09492 | 1766 ft | 143 kts | 203° |
| 2026-05-01 12:35 | 38.84856 | -9.09986 | 1577 ft | 143 kts | 203° |
| 2026-05-01 12:36 | 38.83934 | -9.10482 | 1383 ft | 143 kts | 203° |
| 2026-05-01 12:36 | 38.83018 | -9.10974 | 1196 ft | 142 kts | 203° |
| 2026-05-01 12:36 | 38.82119 | -9.11457 | 1010 ft | 142 kts | 203° |
| 2026-05-01 12:36 | 38.81229 | -9.11935 | 824 ft | 141 kts | 203° |
| 2026-05-01 12:37 | 38.81085 | -9.12013 | 796 ft | 141 kts | 203° |
| 2026-05-01 12:37 | 38.80588 | -9.12279 | 686 ft | 140 kts | 203° |
| 2026-05-01 12:37 | 38.79688 | -9.12763 | 500 ft | 141 kts | 203° |
| 2026-05-01 12:38 | 38.78793 | -9.13249 | 352 ft | 136 kts | 203° |
| 2026-05-01 12:38 | 38.78177 | -9.13586 | 354 ft | 56 kts | 203° |
| 2026-05-01 12:38 | 38.77805 | -9.13755 | 348 ft | 50 kts | 189° |
| 2026-05-01 12:38 | 38.77517 | -9.13755 | 349 ft | 45 kts | 176° |
| 2026-05-01 12:39 | 38.77283 | -9.13786 | 346 ft | 15 kts | 156° |
| 2026-05-01 12:39 | 38.77270 | -9.13671 | 350 ft | 16 kts | 77° |
| 2026-05-01 12:39 | 38.77296 | -9.13538 | 351 ft | 0 kts | 76° |
| 2026-05-01 12:39 | 38.77301 | -9.13495 | 350 ft | 12 kts | 83° |
| 2026-05-01 12:40 | 38.77316 | -9.13356 | 347 ft | 18 kts | 78° |
| 2026-05-01 12:40 | 38.77367 | -9.13203 | 350 ft | 15 kts | 78° |
| 2026-05-01 12:40 | 38.77375 | -9.13124 | 347 ft | 1 kts | 79° |